Time;durP1;ratioP1;P1;durP2;ratioP2;P2;SDS_P1;SDS_P2;PMS_P1;PMS_P2;Temp;Humidity;BMP_temperature;BMP_pressure;BME280_temperature;BME280_humidity;BME280_pressure;Samples;Min_cycle;Max_cycle;Signal;HPM_P1;HPM_P2
2022/12/10 00:00:36;;;;;;;;;;;18.50;59.40;;;;;;5031033;28;1275;-68
2022/12/10 00:03:01;;;;;;;;;;;18.50;59.40;;;;;;5045922;28;866;-68
2022/12/10 00:05:27;;;;;;;;;;;18.50;59.40;;;;;;5045525;28;915;-68
2022/12/10 00:07:52;;;;;;;;;;;18.50;59.40;;;;;;5047065;28;1902;-68
2022/12/10 00:10:18;;;;;;;;;;;18.50;59.50;;;;;;5046645;28;1272;-68
2022/12/10 00:12:43;;;;;;;;;;;18.50;59.40;;;;;;5044440;28;945;-68
2022/12/10 00:15:09;;;;;;;;;;;18.50;59.50;;;;;;5044956;28;1006;-68
2022/12/10 00:17:34;;;;;;;;;;;18.50;59.50;;;;;;5056869;28;881;-67
2022/12/10 00:20:00;;;;;;;;;;;18.50;59.50;;;;;;5048478;28;1284;-68
2022/12/10 00:22:25;;;;;;;;;;;18.50;59.50;;;;;;5030706;28;955;-67
2022/12/10 00:24:51;;;;;;;;;;;18.50;59.50;;;;;;5047102;28;892;-67
2022/12/10 00:27:16;;;;;;;;;;;18.50;59.50;;;;;;5045885;28;1969;-67
2022/12/10 00:29:42;;;;;;;;;;;18.50;59.50;;;;;;5050591;28;1256;-68
2022/12/10 00:32:07;;;;;;;;;;;18.50;59.60;;;;;;5046838;28;1013;-68
2022/12/10 00:34:33;;;;;;;;;;;18.50;59.60;;;;;;5048479;28;809;-68
2022/12/10 00:36:58;;;;;;;;;;;18.40;59.50;;;;;;5049842;28;910;-67
2022/12/10 00:39:24;;;;;;;;;;;18.50;59.60;;;;;;5033730;28;1286;-67
2022/12/10 00:41:49;;;;;;;;;;;18.40;59.50;;;;;;5025121;28;1018;-67
2022/12/10 00:44:15;;;;;;;;;;;18.50;59.60;;;;;;5045140;28;823;-68
2022/12/10 00:46:40;;;;;;;;;;;18.40;59.60;;;;;;5045851;28;1894;-68
2022/12/10 00:49:06;;;;;;;;;;;18.50;59.60;;;;;;5044535;28;844;-68
2022/12/10 00:51:31;;;;;;;;;;;18.40;59.60;;;;;;5046425;28;1176;-68
2022/12/10 00:53:57;;;;;;;;;;;18.40;59.60;;;;;;5035413;28;927;-68
2022/12/10 00:56:23;;;;;;;;;;;18.40;59.60;;;;;;5044393;28;1012;-68
2022/12/10 00:58:49;;;;;;;;;;;18.40;59.60;;;;;;5045302;28;907;-69
2022/12/10 01:01:16;;;;;;;;;;;18.40;59.60;;;;;;5045796;28;1249;-68
2022/12/10 01:03:41;;;;;;;;;;;18.40;59.70;;;;;;5027731;28;1047;-69
2022/12/10 01:06:17;;;;;;;;;;;18.40;59.60;;;;;;5049351;28;958;-68
2022/12/10 01:08:42;;;;;;;;;;;18.40;59.70;;;;;;5046794;28;1902;-68
2022/12/10 01:11:08;;;;;;;;;;;18.40;59.70;;;;;;5041933;28;1300;-68
2022/12/10 01:13:34;;;;;;;;;;;18.40;59.70;;;;;;5029816;28;1335;-68
2022/12/10 01:16:00;;;;;;;;;;;18.40;59.70;;;;;;5047624;28;998;-68
2022/12/10 01:18:26;;;;;;;;;;;18.40;59.70;;;;;;5049660;28;945;-68
2022/12/10 01:20:51;;;;;;;;;;;18.40;59.70;;;;;;5042815;28;1377;-68
2022/12/10 01:23:17;;;;;;;;;;;18.40;59.70;;;;;;5044760;28;1632;-68
2022/12/10 01:25:42;;;;;;;;;;;18.40;59.70;;;;;;5047265;28;1771;-68
2022/12/10 01:28:07;;;;;;;;;;;18.40;59.70;;;;;;5046638;28;1898;-68
2022/12/10 01:30:33;;;;;;;;;;;18.40;59.70;;;;;;5045999;28;1335;-68
2022/12/10 01:32:58;;;;;;;;;;;18.40;59.70;;;;;;5045602;28;1578;-68
2022/12/10 01:35:24;;;;;;;;;;;18.40;59.70;;;;;;5049409;28;1423;-68
2022/12/10 01:37:49;;;;;;;;;;;18.40;59.70;;;;;;5047286;28;822;-69
2022/12/10 01:40:15;;;;;;;;;;;18.40;59.70;;;;;;5023330;28;1374;-69
2022/12/10 01:42:40;;;;;;;;;;;18.40;59.80;;;;;;5044524;28;912;-69
2022/12/10 01:45:07;;;;;;;;;;;18.40;59.70;;;;;;5046865;28;836;-68
2022/12/10 01:47:33;;;;;;;;;;;18.40;59.70;;;;;;5048177;28;1961;-68
2022/12/10 01:49:58;;;;;;;;;;;18.40;59.80;;;;;;5044094;28;1291;-68
2022/12/10 01:52:24;;;;;;;;;;;18.40;59.80;;;;;;5030264;28;844;-68
2022/12/10 01:54:49;;;;;;;;;;;18.40;59.80;;;;;;5048189;28;887;-68
2022/12/10 01:57:16;;;;;;;;;;;18.40;59.80;;;;;;5050813;28;996;-68
2022/12/10 01:59:41;;;;;;;;;;;18.40;59.80;;;;;;5048383;28;1374;-68
2022/12/10 02:02:43;;;;;;;;;;;18.40;59.80;;;;;;5041263;28;895;-68
2022/12/10 02:05:19;;;;;;;;;;;18.40;59.80;;;;;;4971120;28;1268;-69
2022/12/10 02:07:53;;;;;;;;;;;18.40;59.80;;;;;;5035478;28;1898;-68
2022/12/10 02:10:37;;;;;;;;;;;18.40;59.80;;;;;;5042942;28;1358;-69
2022/12/10 02:13:12;;;;;;;;;;;18.40;59.80;;;;;;5031296;28;1371;-69
2022/12/10 02:15:40;;;;;;;;;;;18.40;59.80;;;;;;5043178;28;1334;-69
2022/12/10 02:18:05;;;;;;;;;;;18.30;59.80;;;;;;5032639;28;891;-68
2022/12/10 02:21:00;;;;;;;;;;;18.30;59.80;;;;;;5046835;28;1382;-69
2022/12/10 02:23:26;;;;;;;;;;;18.40;59.90;;;;;;5026401;28;1226;-68
2022/12/10 02:26:03;;;;;;;;;;;18.30;59.80;;;;;;5026599;28;1026;-68
2022/12/10 02:28:32;;;;;;;;;;;18.30;59.80;;;;;;5034197;28;1992;-68
2022/12/10 02:30:57;;;;;;;;;;;18.30;59.80;;;;;;5048226;28;1285;-69
2022/12/10 02:33:23;;;;;;;;;;;18.30;59.80;;;;;;5031023;28;888;-69
2022/12/10 02:35:49;;;;;;;;;;;18.30;59.80;;;;;;5029760;28;1314;-68
2022/12/10 02:38:25;;;;;;;;;;;18.30;59.80;;;;;;5032932;28;931;-68
2022/12/10 02:40:52;;;;;;;;;;;18.30;59.80;;;;;;5029514;28;1315;-68
2022/12/10 02:43:17;;;;;;;;;;;18.30;59.90;;;;;;5050856;28;870;-68
2022/12/10 02:45:43;;;;;;;;;;;18.30;59.90;;;;;;5049989;28;918;-68
2022/12/10 02:48:08;;;;;;;;;;;18.30;59.90;;;;;;5049010;28;1922;-68
2022/12/10 02:50:34;;;;;;;;;;;18.30;59.90;;;;;;5048867;28;1338;-68
2022/12/10 02:52:59;;;;;;;;;;;18.30;59.90;;;;;;5029527;28;1047;-68
2022/12/10 02:55:25;;;;;;;;;;;18.30;59.90;;;;;;5048354;28;1260;-68
2022/12/10 02:57:53;;;;;;;;;;;18.30;59.90;;;;;;5047631;28;865;-68
2022/12/10 03:00:19;;;;;;;;;;;18.30;59.90;;;;;;5051203;28;1354;-68
2022/12/10 03:02:46;;;;;;;;;;;18.30;59.90;;;;;;5034223;28;853;-68
2022/12/10 03:05:22;;;;;;;;;;;18.30;59.90;;;;;;5048993;28;910;-70
2022/12/10 03:07:48;;;;;;;;;;;18.30;59.90;;;;;;5033854;28;1898;-70
2022/12/10 03:10:17;;;;;;;;;;;18.30;59.90;;;;;;5049465;28;1425;-69
2022/12/10 03:12:44;;;;;;;;;;;18.30;60.00;;;;;;5028277;28;1407;-68
2022/12/10 03:15:09;;;;;;;;;;;18.30;60.00;;;;;;5044647;28;1319;-67
2022/12/10 03:17:35;;;;;;;;;;;18.30;59.90;;;;;;5031818;28;1315;-68
2022/12/10 03:20:00;;;;;;;;;;;18.30;60.00;;;;;;5031463;28;1537;-69
2022/12/10 03:22:26;;;;;;;;;;;18.30;60.00;;;;;;5012893;28;1587;-68
2022/12/10 03:24:51;;;;;;;;;;;18.30;60.00;;;;;;5047573;28;1347;-68
2022/12/10 03:27:17;;;;;;;;;;;18.20;59.90;;;;;;5049022;28;1957;-67
2022/12/10 03:29:47;;;;;;;;;;;18.30;60.00;;;;;;5046962;28;1504;-67
2022/12/10 03:32:12;;;;;;;;;;;18.30;60.00;;;;;;5029550;28;1354;-68
2022/12/10 03:34:38;;;;;;;;;;;18.30;60.00;;;;;;5047177;28;1424;-68
2022/12/10 03:37:03;;;;;;;;;;;18.30;60.00;;;;;;5029839;28;1393;-68
2022/12/10 03:39:29;;;;;;;;;;;18.30;60.00;;;;;;5029548;28;1586;-70
2022/12/10 03:41:54;;;;;;;;;;;18.30;60.00;;;;;;5031928;28;1330;-68
2022/12/10 03:44:30;;;;;;;;;;;18.30;60.00;;;;;;5033310;28;812;-68
2022/12/10 03:46:55;;;;;;;;;;;18.30;60.00;;;;;;5032635;28;1953;-69
2022/12/10 03:49:20;;;;;;;;;;;18.30;60.00;;;;;;5037170;28;1366;-69
2022/12/10 03:51:46;;;;;;;;;;;18.30;60.00;;;;;;5030178;28;964;-68
2022/12/10 03:54:11;;;;;;;;;;;18.30;60.00;;;;;;5048047;28;1057;-68
2022/12/10 03:56:37;;;;;;;;;;;18.30;60.00;;;;;;5034551;28;1278;-68
2022/12/10 03:59:03;;;;;;;;;;;18.30;60.00;;;;;;5049552;28;862;-67
2022/12/10 04:01:28;;;;;;;;;;;18.30;60.00;;;;;;5048530;28;1252;-69
2022/12/10 04:03:54;;;;;;;;;;;18.30;60.00;;;;;;5031154;28;1165;-68
2022/12/10 04:06:19;;;;;;;;;;;18.30;60.00;;;;;;5049032;28;843;-69
2022/12/10 04:08:45;;;;;;;;;;;18.30;60.00;;;;;;5041404;28;1894;-67
2022/12/10 04:11:10;;;;;;;;;;;18.30;60.00;;;;;;5042036;28;1995;-67
2022/12/10 04:16:26;;;;;;;;;;;18.30;60.00;;;;;;5047691;28;1349;-69
2022/12/10 04:18:52;;;;;;;;;;;18.30;60.00;;;;;;5050856;28;967;-67
2022/12/10 04:26:52;;;;;;;;;;;18.30;60.00;;;;;;5045395;28;2039;-69
2022/12/10 04:29:18;;;;;;;;;;;18.30;59.90;;;;;;5052743;28;1298;-68
2022/12/10 04:31:44;;;;;;;;;;;18.30;59.90;;;;;;5054594;28;915;-69
2022/12/10 04:34:09;;;;;;;;;;;18.30;59.90;;;;;;5043411;28;1885;-69
2022/12/10 04:36:35;;;;;;;;;;;18.30;59.90;;;;;;5045509;28;1509;-68
2022/12/10 04:39:00;;;;;;;;;;;18.30;59.90;;;;;;5048426;28;1183;-68
2022/12/10 04:41:25;;;;;;;;;;;18.30;59.90;;;;;;5048508;28;1318;-68
2022/12/10 04:43:52;;;;;;;;;;;18.30;59.90;;;;;;5048564;28;1858;-69
2022/12/10 04:46:17;;;;;;;;;;;18.30;59.90;;;;;;5048920;28;1252;-68
2022/12/10 04:48:42;;;;;;;;;;;18.30;59.90;;;;;;5046507;28;1961;-69
2022/12/10 04:51:08;;;;;;;;;;;18.30;59.90;;;;;;5050768;28;1370;-68
2022/12/10 04:53:33;;;;;;;;;;;18.30;60.00;;;;;;5040064;28;2185;-68
2022/12/10 04:56:00;;;;;;;;;;;18.30;60.70;;;;;;5046503;28;1105;-70
2022/12/10 04:58:30;;;;;;;;;;;18.30;59.90;;;;;;5047255;28;1341;-69
2022/12/10 05:01:06;;;;;;;;;;;18.30;60.00;;;;;;5045312;28;1333;-69
2022/12/10 05:03:31;;;;;;;;;;;18.30;59.90;;;;;;5034120;28;883;-69
2022/12/10 05:06:23;;;;;;;;;;;18.30;59.90;;;;;;5045135;28;824;-68
2022/12/10 05:08:48;;;;;;;;;;;18.30;60.00;;;;;;5038275;28;2195;-68
2022/12/10 05:11:17;;;;;;;;;;;18.30;59.90;;;;;;5024031;28;2434;-69
2022/12/10 05:13:43;;;;;;;;;;;18.30;60.00;;;;;;5048043;28;2189;-68
2022/12/10 05:16:09;;;;;;;;;;;18.30;59.90;;;;;;5034174;28;2274;-69
2022/12/10 05:18:35;;;;;;;;;;;18.30;59.80;;;;;;5046205;28;2105;-69
2022/12/10 05:21:00;;;;;;;;;;;18.30;59.70;;;;;;5039019;28;2150;-70
2022/12/10 05:23:29;;;;;;;;;;;18.40;59.70;;;;;;5039878;28;955;-69
2022/12/10 05:26:08;;;;;;;;;;;18.40;59.70;;;;;;5027143;28;869;-69
2022/12/10 05:28:34;;;;;;;;;;;18.40;59.60;;;;;;5048411;28;1906;-69
2022/12/10 05:30:59;;;;;;;;;;;18.40;59.50;;;;;;5037952;28;1264;-68
2022/12/10 05:33:25;;;;;;;;;;;18.50;59.50;;;;;;5041479;28;1622;-68
2022/12/10 05:35:51;;;;;;;;;;;18.50;59.50;;;;;;5040219;28;848;-70
2022/12/10 05:38:16;;;;;;;;;;;18.50;59.40;;;;;;5035789;28;1430;-69
2022/12/10 05:40:42;;;;;;;;;;;18.50;59.30;;;;;;5045578;28;1356;-69
2022/12/10 05:43:07;;;;;;;;;;;18.50;59.20;;;;;;5030290;28;1054;-71
2022/12/10 05:45:33;;;;;;;;;;;18.60;59.20;;;;;;5044681;28;903;-71
2022/12/10 05:47:58;;;;;;;;;;;18.60;59.20;;;;;;5052058;28;1953;-70
2022/12/10 05:50:24;;;;;;;;;;;18.60;59.10;;;;;;5041181;28;1265;-70
2022/12/10 05:52:52;;;;;;;;;;;18.60;59.10;;;;;;5035776;28;1522;-71
2022/12/10 05:55:18;;;;;;;;;;;18.60;59.10;;;;;;5049160;28;1243;-69
2022/12/10 05:57:43;;;;;;;;;;;18.60;59.00;;;;;;5049809;28;877;-69
2022/12/10 06:00:09;;;;;;;;;;;18.60;59.00;;;;;;5047345;28;1341;-69
2022/12/10 06:02:34;;;;;;;;;;;18.60;59.00;;;;;;5033727;28;859;-69
2022/12/10 06:05:00;;;;;;;;;;;18.60;58.90;;;;;;5031022;28;1367;-69
2022/12/10 06:07:25;;;;;;;;;;;18.60;58.90;;;;;;5046322;28;1906;-69
2022/12/10 06:09:51;;;;;;;;;;;18.60;58.90;;;;;;5031294;28;1336;-68
2022/12/10 06:12:16;;;;;;;;;;;18.70;59.00;;;;;;5046406;28;967;-68
2022/12/10 06:14:42;;;;;;;;;;;18.60;58.90;;;;;;5046347;28;1221;-71
2022/12/10 06:17:07;;;;;;;;;;;18.60;58.90;;;;;;5042137;28;1331;-70
2022/12/10 06:19:32;;;;;;;;;;;18.70;58.90;;;;;;5054309;28;1261;-70
2022/12/10 06:21:58;;;;;;;;;;;18.70;58.90;;;;;;5046912;28;1411;-70
2022/12/10 06:24:24;;;;;;;;;;;18.70;58.90;;;;;;5042986;28;1125;-70
2022/12/10 06:26:49;;;;;;;;;;;18.70;58.90;;;;;;5050462;28;1967;-71
2022/12/10 06:29:15;;;;;;;;;;;18.70;58.80;;;;;;5046530;28;1277;-70
2022/12/10 06:31:40;;;;;;;;;;;18.70;58.90;;;;;;5046517;28;891;-69
2022/12/10 06:34:06;;;;;;;;;;;18.70;58.80;;;;;;5030947;28;1185;-70
2022/12/10 06:36:31;;;;;;;;;;;18.70;58.80;;;;;;5052189;28;879;-71
2022/12/10 06:38:56;;;;;;;;;;;18.70;58.80;;;;;;5049513;28;856;-71
2022/12/10 06:41:22;;;;;;;;;;;18.70;58.80;;;;;;5050773;28;1271;-70
2022/12/10 06:43:48;;;;;;;;;;;18.70;58.80;;;;;;5051048;28;918;-70
2022/12/10 06:46:14;;;;;;;;;;;18.70;58.80;;;;;;5047779;28;967;-70
2022/12/10 06:48:40;;;;;;;;;;;18.70;58.80;;;;;;5050480;28;1922;-70
2022/12/10 06:51:05;;;;;;;;;;;18.70;58.80;;;;;;5047772;28;1357;-70
2022/12/10 06:53:31;;;;;;;;;;;18.70;58.90;;;;;;5031993;28;936;-69
2022/12/10 06:56:00;;;;;;;;;;;18.70;58.90;;;;;;5048483;28;939;-70
2022/12/10 06:58:26;;;;;;;;;;;18.60;58.80;;;;;;5047403;28;895;-69
2022/12/10 07:00:52;;;;;;;;;;;18.60;58.90;;;;;;5028195;28;1282;-70
2022/12/10 07:03:17;;;;;;;;;;;18.60;58.90;;;;;;5047441;28;911;-69
2022/12/10 07:05:43;;;;;;;;;;;18.60;58.90;;;;;;5044904;28;764;-69
2022/12/10 07:08:08;;;;;;;;;;;18.60;58.90;;;;;;5045277;28;1965;-69
2022/12/10 07:10:34;;;;;;;;;;;18.70;58.90;;;;;;5049776;28;1248;-69
2022/12/10 07:13:00;;;;;;;;;;;18.60;58.90;;;;;;5048675;28;1274;-71
2022/12/10 07:15:27;;;;;;;;;;;18.60;59.00;;;;;;5049462;28;1259;-70
2022/12/10 07:17:52;;;;;;;;;;;18.60;58.90;;;;;;5047030;28;887;-70
2022/12/10 07:20:18;;;;;;;;;;;18.60;59.00;;;;;;5031116;28;1306;-70
2022/12/10 07:22:44;;;;;;;;;;;18.60;59.00;;;;;;5051120;28;806;-70
2022/12/10 07:25:09;;;;;;;;;;;18.60;59.00;;;;;;5034255;28;805;-69
2022/12/10 07:27:35;;;;;;;;;;;18.60;59.00;;;;;;5051628;28;1967;-69
2022/12/10 07:30:00;;;;;;;;;;;18.60;59.00;;;;;;5049134;28;1311;-70
2022/12/10 07:32:28;;;;;;;;;;;18.60;59.10;;;;;;5047794;28;850;-70
2022/12/10 07:34:54;;;;;;;;;;;18.60;59.10;;;;;;5048032;28;864;-71
2022/12/10 07:37:19;;;;;;;;;;;18.60;59.10;;;;;;5019967;28;1340;-68
2022/12/10 07:39:45;;;;;;;;;;;18.60;59.10;;;;;;5055921;28;1284;-70
2022/12/10 07:42:11;;;;;;;;;;;18.60;59.10;;;;;;5031376;28;4422;-69
2022/12/10 07:44:36;;;;;;;;;;;18.60;59.10;;;;;;5024031;28;4840;-71
2022/12/10 07:47:02;;;;;;;;;;;18.60;59.10;;;;;;5042350;28;1969;-69
2022/12/10 07:49:28;;;;;;;;;;;18.50;59.10;;;;;;5044056;28;1264;-69
2022/12/10 07:51:54;;;;;;;;;;;18.60;59.20;;;;;;5028744;28;1735;-70
2022/12/10 07:54:19;;;;;;;;;;;18.50;59.10;;;;;;5050311;28;787;-70
2022/12/10 07:56:45;;;;;;;;;;;18.60;59.20;;;;;;5049446;28;859;-69
2022/12/10 07:59:10;;;;;;;;;;;18.50;59.10;;;;;;5047092;28;860;-69
2022/12/10 08:01:36;;;;;;;;;;;18.60;59.20;;;;;;5054170;28;2105;-70
2022/12/10 08:04:01;;;;;;;;;;;18.50;59.10;;;;;;5056390;28;1318;-70
2022/12/10 08:06:27;;;;;;;;;;;18.60;59.20;;;;;;5036256;28;1859;-70
2022/12/10 08:08:52;;;;;;;;;;;18.50;59.70;;;;;;5031678;28;2033;-71
2022/12/10 08:11:19;;;;;;;;;;;18.60;59.20;;;;;;5044120;28;1387;-71
2022/12/10 08:13:44;;;;;;;;;;;18.60;59.20;;;;;;5048870;28;1478;-71
2022/12/10 08:16:11;;;;;;;;;;;18.60;59.10;;;;;;5031587;28;1372;-71
2022/12/10 08:18:36;;;;;;;;;;;18.60;59.10;;;;;;5043648;28;1347;-71
2022/12/10 08:21:05;;;;;;;;;;;18.60;59.10;;;;;;5045232;28;1367;-70
2022/12/10 08:23:31;;;;;;;;;;;18.60;59.10;;;;;;5045474;28;860;-70
2022/12/10 08:25:56;;;;;;;;;;;18.60;59.10;;;;;;5047947;28;928;-71
2022/12/10 08:28:22;;;;;;;;;;;18.60;59.10;;;;;;5027472;28;1973;-70
2022/12/10 08:30:47;;;;;;;;;;;18.60;59.00;;;;;;5048108;28;1353;-70
2022/12/10 08:33:13;;;;;;;;;;;18.60;59.00;;;;;;5048623;28;963;-71
2022/12/10 08:35:38;;;;;;;;;;;18.60;59.00;;;;;;5056219;28;919;-71
2022/12/10 08:38:04;;;;;;;;;;;18.60;58.90;;;;;;5052643;28;946;-71
2022/12/10 08:40:29;;;;;;;;;;;18.60;58.90;;;;;;5053561;28;1299;-70
2022/12/10 08:42:55;;;;;;;;;;;18.60;58.90;;;;;;5049678;28;883;-69
2022/12/10 08:45:20;;;;;;;;;;;18.60;58.90;;;;;;5048477;28;993;-70
2022/12/10 08:47:46;;;;;;;;;;;18.60;58.90;;;;;;5051700;28;1902;-71
2022/12/10 08:50:11;;;;;;;;;;;18.60;58.90;;;;;;5035334;28;1352;-72
2022/12/10 08:52:37;;;;;;;;;;;18.70;58.90;;;;;;5047528;28;975;-71
2022/12/10 08:55:02;;;;;;;;;;;18.70;58.90;;;;;;5051919;28;1277;-72
2022/12/10 08:57:28;;;;;;;;;;;18.70;58.80;;;;;;5051531;28;844;-71
2022/12/10 08:59:53;;;;;;;;;;;18.70;58.80;;;;;;5043081;28;1279;-71
2022/12/10 09:02:19;;;;;;;;;;;18.70;58.80;;;;;;5051902;28;824;-71
2022/12/10 09:04:46;;;;;;;;;;;18.70;58.80;;;;;;5035766;28;844;-71
2022/12/10 09:07:11;;;;;;;;;;;18.70;58.80;;;;;;5052303;28;1947;-71
2022/12/10 09:09:37;;;;;;;;;;;18.70;58.80;;;;;;5035391;28;1204;-71
2022/12/10 09:12:02;;;;;;;;;;;18.70;58.80;;;;;;5045138;28;824;-70
2022/12/10 09:14:28;;;;;;;;;;;18.70;58.80;;;;;;5040857;28;1327;-70
2022/12/10 09:16:53;;;;;;;;;;;18.70;58.80;;;;;;5046108;28;934;-70
2022/12/10 09:19:19;;;;;;;;;;;18.70;58.70;;;;;;5049351;28;1363;-70
2022/12/10 09:21:44;;;;;;;;;;;18.70;58.70;;;;;;5049220;28;1339;-71
2022/12/10 09:24:10;;;;;;;;;;;18.70;58.70;;;;;;5067052;28;804;-71
2022/12/10 09:26:35;;;;;;;;;;;18.70;58.70;;;;;;5057167;28;1222;-71
2022/12/10 09:29:01;;;;;;;;;;;18.70;58.70;;;;;;5054199;28;1902;-71
2022/12/10 09:31:26;;;;;;;;;;;18.70;58.70;;;;;;5046764;28;1340;-72
2022/12/10 09:33:52;;;;;;;;;;;18.70;58.70;;;;;;5048379;28;886;-71
2022/12/10 09:36:18;;;;;;;;;;;18.70;58.70;;;;;;5052599;28;845;-72
2022/12/10 09:38:43;;;;;;;;;;;18.70;58.70;;;;;;5052427;28;860;-72
2022/12/10 09:41:28;;;;;;;;;;;18.70;58.70;;;;;;5050569;28;1291;-71
2022/12/10 09:43:53;;;;;;;;;;;18.70;58.70;;;;;;5052635;28;994;-72
2022/12/10 09:46:26;;;;;;;;;;;18.70;58.70;;;;;;5050107;28;828;-71
2022/12/10 09:49:10;;;;;;;;;;;18.70;58.70;;;;;;5035532;28;1957;-72
2022/12/10 09:51:36;;;;;;;;;;;18.70;58.70;;;;;;5052778;28;1140;-70
2022/12/10 09:54:02;;;;;;;;;;;18.70;58.70;;;;;;5041180;28;4329;-70
2022/12/10 09:56:34;;;;;;;;;;;18.70;58.70;;;;;;5035564;28;4302;-72
2022/12/10 09:59:02;;;;;;;;;;;18.70;58.70;;;;;;5033138;28;5324;-71
2022/12/10 10:01:27;;;;;;;;;;;18.70;58.70;;;;;;5036098;28;4893;-71
2022/12/10 10:03:53;;;;;;;;;;;18.70;58.70;;;;;;5025279;28;4520;-71
2022/12/10 10:06:18;;;;;;;;;;;18.70;58.70;;;;;;5051580;28;879;-71
2022/12/10 10:08:45;;;;;;;;;;;18.70;58.70;;;;;;5049488;28;2009;-72
2022/12/10 10:11:12;;;;;;;;;;;18.70;58.70;;;;;;5037585;28;1269;-71
2022/12/10 10:13:41;;;;;;;;;;;18.70;58.70;;;;;;5052344;28;1313;-70
2022/12/10 10:16:23;;;;;;;;;;;18.70;58.70;;;;;;5037500;28;863;-71
2022/12/10 10:18:59;;;;;;;;;;;18.70;58.70;;;;;;5035947;28;887;-71
2022/12/10 10:21:33;;;;;;;;;;;18.70;58.70;;;;;;5038182;28;1318;-71
2022/12/10 10:23:59;;;;;;;;;;;18.70;58.70;;;;;;5052065;28;879;-71
2022/12/10 10:26:25;;;;;;;;;;;18.70;58.70;;;;;;5040857;28;873;-71
2022/12/10 10:28:52;;;;;;;;;;;18.70;58.70;;;;;;5060550;28;1981;-71
2022/12/10 10:31:21;;;;;;;;;;;18.70;58.70;;;;;;5058879;28;1197;-71
2022/12/10 10:33:48;;;;;;;;;;;18.70;58.70;;;;;;5040130;28;1014;-71
2022/12/10 10:36:14;;;;;;;;;;;18.70;58.70;;;;;;5054757;28;829;-71
2022/12/10 10:38:39;;;;;;;;;;;18.70;58.60;;;;;;5048875;28;1006;-71
2022/12/10 10:41:05;;;;;;;;;;;18.70;58.70;;;;;;5042254;28;1293;-71
2022/12/10 10:43:32;;;;;;;;;;;18.70;58.60;;;;;;5067078;28;882;-71
2022/12/10 10:46:07;;;;;;;;;;;18.70;58.60;;;;;;5047490;28;780;-71
2022/12/10 10:48:32;;;;;;;;;;;18.70;58.60;;;;;;5027897;28;1971;-71
2022/12/10 10:51:06;;;;;;;;;;;18.80;58.70;;;;;;5050656;28;1269;-70
2022/12/10 10:53:35;;;;;;;;;;;18.70;58.60;;;;;;5051004;28;1206;-71
2022/12/10 10:56:05;;;;;;;;;;;18.70;58.60;;;;;;5033546;28;1449;-70
2022/12/10 10:58:30;;;;;;;;;;;18.70;58.60;;;;;;5050414;28;875;-70
2022/12/10 11:01:16;;;;;;;;;;;18.70;58.60;;;;;;5050080;28;1251;-70
2022/12/10 11:03:46;;;;;;;;;;;18.70;58.60;;;;;;5051033;28;1059;-70
2022/12/10 11:06:11;;;;;;;;;;;18.70;58.60;;;;;;5034453;28;922;-71
2022/12/10 11:08:37;;;;;;;;;;;18.70;58.60;;;;;;5034853;28;1914;-71
2022/12/10 11:11:06;;;;;;;;;;;18.70;58.60;;;;;;5031243;28;1363;-71
2022/12/10 11:13:33;;;;;;;;;;;18.70;58.60;;;;;;5049299;28;1412;-71
2022/12/10 11:16:10;;;;;;;;;;;18.70;58.60;;;;;;5029118;28;856;-71
2022/12/10 11:18:36;;;;;;;;;;;18.70;58.60;;;;;;5053597;28;817;-71
2022/12/10 11:21:03;;;;;;;;;;;18.70;58.60;;;;;;5050149;28;1253;-71
2022/12/10 11:23:29;;;;;;;;;;;18.70;58.60;;;;;;5035226;28;836;-70
2022/12/10 11:25:58;;;;;;;;;;;18.70;58.60;;;;;;5049909;28;769;-71
2022/12/10 11:28:24;;;;;;;;;;;18.70;58.60;;;;;;5052720;28;1883;-71
2022/12/10 11:30:53;;;;;;;;;;;18.80;59.30;;;;;;5054545;28;1280;-70
2022/12/10 11:33:31;;;;;;;;;;;18.70;58.60;;;;;;5030798;28;891;-71
2022/12/10 11:36:02;;;;;;;;;;;18.70;58.70;;;;;;5054232;28;862;-71
2022/12/10 11:38:32;;;;;;;;;;;18.70;58.60;;;;;;5030602;28;1120;-71
2022/12/10 11:41:04;;;;;;;;;;;18.70;58.60;;;;;;5029128;28;1406;-71
2022/12/10 11:43:42;;;;;;;;;;;18.70;58.60;;;;;;5044937;28;998;-71
2022/12/10 11:46:07;;;;;;;;;;;18.70;58.60;;;;;;5034431;28;1026;-72
2022/12/10 11:48:59;;;;;;;;;;;18.70;58.60;;;;;;5050768;28;1960;-71
2022/12/10 11:51:27;;;;;;;;;;;18.70;58.60;;;;;;5012204;28;1230;-71
2022/12/10 11:53:52;;;;;;;;;;;18.70;58.60;;;;;;5024120;28;848;-71
2022/12/10 11:56:36;;;;;;;;;;;18.70;58.60;;;;;;5050032;28;809;-71
2022/12/10 11:59:20;;;;;;;;;;;18.70;58.70;;;;;;5054483;28;931;-72
2022/12/10 12:02:18;;;;;;;;;;;18.70;58.60;;;;;;5028841;28;1385;-71
2022/12/10 12:05:01;;;;;;;;;;;18.70;58.70;;;;;;5007532;28;1126;-71
2022/12/10 12:07:32;;;;;;;;;;;18.70;58.60;;;;;;5050408;28;1886;-71
2022/12/10 12:10:07;;;;;;;;;;;18.70;58.70;;;;;;5028816;28;1320;-71
2022/12/10 12:12:51;;;;;;;;;;;18.70;58.60;;;;;;5020914;28;907;-70
2022/12/10 12:15:22;;;;;;;;;;;18.70;58.70;;;;;;5049759;28;1262;-69
2022/12/10 12:17:48;;;;;;;;;;;18.70;58.70;;;;;;5023128;28;867;-71
2022/12/10 12:20:14;;;;;;;;;;;18.70;58.70;;;;;;5023955;28;1257;-71
2022/12/10 12:22:41;;;;;;;;;;;18.70;58.70;;;;;;5042265;28;884;-71
2022/12/10 12:25:20;;;;;;;;;;;18.70;58.70;;;;;;5028554;28;2252;-69
2022/12/10 12:27:50;;;;;;;;;;;18.70;58.60;;;;;;5047571;28;1906;-69
2022/12/10 12:30:18;;;;;;;;;;;18.70;58.70;;;;;;5050329;28;1361;-69
2022/12/10 12:32:46;;;;;;;;;;;18.70;58.70;;;;;;5035237;28;812;-69
2022/12/10 12:35:17;;;;;;;;;;;18.70;58.60;;;;;;5052368;28;887;-69
2022/12/10 12:37:47;;;;;;;;;;;18.70;58.60;;;;;;5035826;28;812;-69
2022/12/10 12:40:24;;;;;;;;;;;18.70;58.60;;;;;;5027242;28;1353;-69
2022/12/10 12:42:52;;;;;;;;;;;18.70;58.70;;;;;;5049284;28;932;-69
2022/12/10 12:45:24;;;;;;;;;;;18.70;58.60;;;;;;5028115;28;1643;-70
2022/12/10 12:47:58;;;;;;;;;;;18.70;58.60;;;;;;5043129;28;1902;-71
2022/12/10 12:50:44;;;;;;;;;;;18.70;58.60;;;;;;5035966;28;2148;-72
2022/12/10 12:53:11;;;;;;;;;;;18.70;58.60;;;;;;5054934;28;1314;-72
2022/12/10 12:55:48;;;;;;;;;;;18.70;58.60;;;;;;5030470;28;1248;-72
2022/12/10 12:58:13;;;;;;;;;;;18.70;58.60;;;;;;5026238;28;1453;-72
2022/12/10 13:00:40;;;;;;;;;;;18.70;58.60;;;;;;5046979;28;1240;-72
2022/12/10 13:03:18;;;;;;;;;;;18.70;58.60;;;;;;5043448;28;1564;-71
2022/12/10 13:05:43;;;;;;;;;;;18.70;58.60;;;;;;5045169;28;2116;-71
2022/12/10 13:08:15;;;;;;;;;;;18.70;58.60;;;;;;5048024;28;2285;-71
2022/12/10 13:11:03;;;;;;;;;;;18.70;58.60;;;;;;5050291;28;1951;-70
2022/12/10 13:13:29;;;;;;;;;;;18.70;58.60;;;;;;5026046;28;1418;-69
2022/12/10 13:15:55;;;;;;;;;;;18.70;58.60;;;;;;5042989;28;1467;-69
2022/12/10 13:18:36;;;;;;;;;;;18.70;58.60;;;;;;5032932;28;1485;-71
2022/12/10 13:21:20;;;;;;;;;;;18.70;58.60;;;;;;5031448;28;1232;-71
2022/12/10 13:23:47;;;;;;;;;;;18.70;58.60;;;;;;5046984;28;1320;-70
2022/12/10 13:26:42;;;;;;;;;;;18.70;58.60;;;;;;5037437;28;1487;-70
2022/12/10 13:29:17;;;;;;;;;;;18.70;58.60;;;;;;5022224;28;1975;-71
2022/12/10 13:31:44;;;;;;;;;;;18.80;58.70;;;;;;5048997;28;1260;-71
2022/12/10 13:34:21;;;;;;;;;;;18.70;58.60;;;;;;5050002;28;1430;-71
2022/12/10 13:36:46;;;;;;;;;;;18.80;58.60;;;;;;5028918;28;1447;-71
2022/12/10 13:39:20;;;;;;;;;;;18.80;58.60;;;;;;5039856;28;1294;-69
2022/12/10 13:44:49;;;;;;;;;;;18.80;58.50;;;;;;5044192;28;853;-70
2022/12/10 13:47:22;;;;;;;;;;;18.80;58.50;;;;;;5043623;28;1906;-70
2022/12/10 13:49:50;;;;;;;;;;;18.80;58.50;;;;;;5030941;28;1243;-69
2022/12/10 13:52:17;;;;;;;;;;;18.80;58.50;;;;;;5044856;28;1148;-70
2022/12/10 13:54:59;;;;;;;;;;;18.80;58.60;;;;;;5044567;28;1163;-70
2022/12/10 13:57:34;;;;;;;;;;;18.80;58.50;;;;;;5042732;28;808;-70
2022/12/10 14:00:17;;;;;;;;;;;18.80;58.50;;;;;;5047702;28;1229;-70
2022/12/10 14:02:55;;;;;;;;;;;18.80;58.50;;;;;;5046369;28;914;-69
2022/12/10 14:05:21;;;;;;;;;;;18.80;58.50;;;;;;5042412;28;1208;-69
2022/12/10 14:07:47;;;;;;;;;;;18.80;58.50;;;;;;5046461;28;1910;-70
2022/12/10 14:10:16;;;;;;;;;;;18.80;59.10;;;;;;5046952;28;1457;-70
2022/12/10 14:12:42;;;;;;;;;;;18.80;58.50;;;;;;5030172;28;1294;-70
2022/12/10 14:15:08;;;;;;;;;;;18.80;58.50;;;;;;5042011;28;1279;-69
2022/12/10 14:17:34;;;;;;;;;;;18.80;58.50;;;;;;5028756;28;927;-70
2022/12/10 14:20:03;;;;;;;;;;;18.80;58.50;;;;;;5028679;28;1395;-70
2022/12/10 14:22:28;;;;;;;;;;;18.80;58.50;;;;;;5025025;28;955;-70
2022/12/10 14:24:54;;;;;;;;;;;18.80;58.50;;;;;;5048951;28;851;-69
2022/12/10 14:27:20;;;;;;;;;;;18.80;58.40;;;;;;5028296;28;1906;-71
2022/12/10 14:29:46;;;;;;;;;;;18.80;58.40;;;;;;5056966;28;1294;-70
2022/12/10 14:32:15;;;;;;;;;;;18.80;58.40;;;;;;5053050;28;845;-70
2022/12/10 14:34:41;;;;;;;;;;;18.80;58.40;;;;;;5021800;28;804;-70
2022/12/10 14:37:06;;;;;;;;;;;18.80;58.40;;;;;;5030336;28;851;-70
2022/12/10 14:39:32;;;;;;;;;;;18.80;58.40;;;;;;5035795;28;1400;-69
2022/12/10 14:41:59;;;;;;;;;;;18.80;58.40;;;;;;5035328;28;890;-70
2022/12/10 14:44:24;;;;;;;;;;;18.80;58.40;;;;;;5047445;28;874;-70
2022/12/10 14:46:50;;;;;;;;;;;18.80;58.90;;;;;;5034660;28;1493;-70
2022/12/10 14:49:19;;;;;;;;;;;18.80;58.30;;;;;;5052275;28;1898;-70